Terminal Aerodrome Forecast
Issued by NWS North Platte, NE

Home | Current Version | Previous Version | Text Only | Print | Product List | Glossary On
Versions: 1 2 3 4 5 6 7 8 9 10 11 12 13 14 15 16
000
FTUS43 KLBF 210520
TAFLBF
TAF
KLBF 210520Z 2106/2206 32005KT P6SM FEW110 BKN200
     FM210800 33006KT P6SM BKN110
     FM210900 33007KT P6SM BKN090
     FM211200 36009KT P6SM BKN080
     FM211500 35013G19KT P6SM SCT120
     FM212200 34009KT P6SM FEW250
     FM220000 36005KT P6SM FEW250
     FM220500 16004KT P6SM FEW250=

USA.gov is the U.S. government's official web portal to all federal, state and local government web resources and services.